Hovedside
METAR-TAF:

METAR-TAF

Lufthavner :

Riga, Latvia

Riga internasjonale lufthavn

breddegrad: 56-55N, lengdegrad: 023-58E, høyde over havet: 10 m

Gjeldene værobservasjon

Denne rapporten ble laget for 16 minutter siden, klokken 07:20 UTC
Vind 12 kt fra Nordvest med vindkast opp mot 24 kt, skiftende mellom Vest-sørvest og Nord
Temperatur 12°C
Luftfuktighet 71%
Trykk 1003 hPa
Sikt 10 km eller mer
Brutte skyer i en høyde av 2300 ft
Brutte skyer i en høyde av 3200 ft

METAR: EVRA 210720Z 32012G24KT 250V350 9999 BKN023 BKN032 12/07 Q1003 NOSIG

Tid: 10:36 (07:36 UTC)

Varsel

Denne rapporten ble laget for 2 timer og 35 minutter siden, klokken 05:01 UTC
Varsel gyldig fra 21. klokken 06 UTC til 22. klokken 06 UTC
Vind 7 kt fra Vest
Sikt 10 km eller mer
ingen skyer under 1500 m og ingen bygeskyer
Midlertidig
fra 21. klokken 06 UTC til 21. klokken 15 UTC
Vind 15 kt fra Vest-nordvest med vindkast opp mot 28 kt

TAF: EVRA 210501Z 2106/2206 27007KT CAVOK TEMPO 2106/2115 30015G28KT

Værobservasjoner og værvarsel for over 4000 flyplasser (METAR- og TAF-rapporter).

Tilgjengelige stasjoner er representert av de røde og gule prikkene på kartet.

Hold musepekeren over prikken for å se navnet på stasjonen.

Klikk så for å se værobservasjoner og -varsler.

For å forandre kartet kan du klikke på den grønne knappen med svart kryss for å zoome inn, på den grønne knappen med strek for å zoome ut, eller på de grønne pilene for å se tilstøtende kart.


METAR-TAF: